Time;durP1;ratioP1;P1;durP2;ratioP2;P2;SDS_P1;SDS_P2;PMS_P1;PMS_P2;Temp;Humidity;BMP_temperature;BMP_pressure;BME280_temperature;BME280_humidity;BME280_pressure;Samples;Min_cycle;Max_cycle;Signal;HPM_P1;HPM_P2
2023/01/02 00:03:02;;;;;;;25.08;11.80;;;;;;;12.12;100.00;101012.89;5078214;56;1145064;-70
2023/01/02 00:08:08;;;;;;;23.83;12.77;;;;;;;12.11;100.00;101008.06;5147081;56;1144996;-67
2023/01/02 00:13:14;;;;;;;31.67;12.53;;;;;;;12.17;100.00;101002.78;5122964;56;1145091;-66
2023/01/02 00:18:20;;;;;;;34.80;13.63;;;;;;;12.20;100.00;100999.42;5120826;56;1144912;-67
2023/01/02 00:23:25;;;;;;;27.50;12.93;;;;;;;12.18;100.00;101016.41;5141214;56;1145140;-69
2023/01/02 00:28:32;;;;;;;23.37;11.60;;;;;;;12.11;100.00;101013.84;5121077;56;1145028;-66
2023/01/02 00:33:38;;;;;;;25.13;11.83;;;;;;;12.02;100.00;101018.53;5121296;56;1145070;-70
2023/01/02 00:38:46;;;;;;;31.10;10.65;;;;;;;11.96;100.00;101021.16;5121395;56;1145228;-69
2023/01/02 00:43:52;;;;;;;28.98;10.70;;;;;;;11.90;100.00;101027.78;5141316;56;1144854;-69
2023/01/02 00:48:58;;;;;;;25.07;10.40;;;;;;;11.84;100.00;101032.68;5068487;56;1144968;-66
2023/01/02 00:54:04;;;;;;;26.37;11.00;;;;;;;11.80;100.00;101032.05;5036537;57;1144963;-67
2023/01/02 00:59:10;;;;;;;26.97;12.00;;;;;;;11.78;100.00;101031.80;5056237;57;1145129;-66
2023/01/02 01:04:15;;;;;;;26.60;10.70;;;;;;;11.76;100.00;101037.72;5093961;56;1145211;-69
2023/01/02 01:09:21;;;;;;;25.87;11.57;;;;;;;11.76;100.00;101037.72;5121026;56;1145014;-68
2023/01/02 01:14:27;;;;;;;71.93;30.93;;;;;;;11.81;100.00;101025.80;5107595;56;1144990;-66
2023/01/02 01:19:35;;;;;;;26.17;12.67;;;;;;;11.90;100.00;101014.53;5044797;56;1144916;-69
2023/01/02 01:24:40;;;;;;;22.85;12.35;;;;;;;11.91;100.00;101014.89;5045037;56;1146296;-69
2023/01/02 01:29:46;;;;;;;31.80;12.00;;;;;;;11.91;100.00;101016.70;5045045;57;1144963;-68
2023/01/02 01:34:52;;;;;;;38.53;15.25;;;;;;;11.86;100.00;101039.56;5008675;57;1145196;-69
2023/01/02 01:39:58;;;;;;;23.87;9.87;;;;;;;11.88;100.00;101028.85;4962602;57;1144989;-68
2023/01/02 01:45:06;;;;;;;28.57;10.03;;;;;;;11.89;100.00;101004.88;5010952;57;1142947;-69
2023/01/02 01:50:28;;;;;;;22.97;9.03;;;;;;;11.67;100.00;100990.66;5064618;57;1145163;-69
2023/01/02 01:55:41;;;;;;;24.97;9.47;;;;;;;11.67;100.00;100990.66;5043799;57;1180780;-67
2023/01/02 02:00:46;;;;;;;27.37;10.18;;;;;;;11.57;100.00;100971.48;5008305;57;1212506;-69
2023/01/02 02:05:52;;;;;;;22.05;8.45;;;;;;;11.51;100.00;100951.22;5043590;57;1234043;-69
2023/01/02 02:11:00;;;;;;;19.13;8.73;;;;;;;11.48;100.00;100939.52;5064390;57;1142923;-66
2023/01/02 02:16:34;;;;;;;23.43;10.63;;;;;;;11.49;100.00;100947.36;5074720;56;1143115;-65
2023/01/02 02:22:17;;;;;;;21.13;9.23;;;;;;;11.46;100.00;100937.46;5126431;56;1181971;-67
2023/01/02 02:27:42;;;;;;;17.17;8.97;;;;;;;11.39;100.00;100923.00;5124959;56;1224738;-68
2023/01/02 02:33:20;;;;;;;21.30;9.33;;;;;;;11.35;100.00;100913.59;4972944;56;1143063;-69
2023/01/02 02:38:37;;;;;;;23.47;9.80;;;;;;;11.35;100.00;100914.44;5063180;56;1143170;-66
2023/01/02 02:44:14;;;;;;;20.40;10.20;;;;;;;11.34;100.00;100906.60;5127555;56;1143165;-68
2023/01/02 02:49:50;;;;;;;20.73;10.00;;;;;;;11.26;100.00;100902.73;5126879;56;1145039;-68
2023/01/02 02:55:22;;;;;;;31.83;12.87;;;;;;;11.28;100.00;100903.95;5127240;56;1145236;-67
2023/01/02 03:00:27;;;;;;;29.10;12.87;;;;;;;11.38;100.00;100905.42;5142310;56;1145068;-65
2023/01/02 03:05:40;;;;;;;25.63;10.67;;;;;;;11.45;100.00;100890.30;5126746;56;1145149;-68
2023/01/02 03:10:52;;;;;;;29.53;12.07;;;;;;;11.48;100.00;100875.95;5127590;56;1145289;-68
2023/01/02 03:16:20;;;;;;;34.63;15.28;;;;;;;11.46;100.00;100864.63;5127178;56;1145245;-68
2023/01/02 03:21:45;;;;;;;25.13;10.20;;;;;;;11.45;100.00;100870.44;5126321;56;1145848;-69
2023/01/02 03:26:55;;;;;;;41.30;16.13;;;;;;;11.46;100.00;100876.06;5098491;56;1145208;-67
2023/01/02 03:32:04;;;;;;;37.83;13.75;;;;;;;11.47;100.00;100872.45;5090699;56;1145218;-67
2023/01/02 03:37:16;;;;;;;24.40;10.77;;;;;;;11.50;100.00;100873.56;5055202;57;1145206;-68
2023/01/02 03:42:37;;;;;;;21.30;9.47;;;;;;;11.50;100.00;100862.96;5037107;57;1145296;-67
2023/01/02 03:48:10;;;;;;;25.97;10.03;;;;;;;11.48;100.00;100859.58;5037177;57;1143192;-68
2023/01/02 03:53:16;;;;;;;19.45;9.33;;;;;;;11.41;100.00;100847.78;4987675;57;1145181;-66
2023/01/02 03:58:38;;;;;;;26.63;8.93;;;;;;;11.38;100.00;100840.06;5056853;57;1143219;-66
2023/01/02 04:03:52;;;;;;;20.90;10.73;;;;;;;11.38;100.00;100836.09;5068406;56;1142963;-67
2023/01/02 04:09:14;;;;;;;20.40;10.97;;;;;;;11.35;100.00;100836.31;5103001;56;1145252;-67
2023/01/02 04:14:26;;;;;;;27.57;10.90;;;;;;;11.28;100.00;100815.25;5128479;56;1145117;-68
2023/01/02 04:19:43;;;;;;;21.25;12.37;;;;;;;11.20;100.00;100803.90;5094961;56;1145625;-65
2023/01/02 04:24:55;;;;;;;21.00;10.53;;;;;;;11.17;100.00;100792.69;5122602;56;1145302;-66
2023/01/02 04:30:01;;;;;;;23.27;11.37;;;;;;;11.12;100.00;100790.41;5086019;56;1145096;-68
2023/01/02 04:35:11;;;;;;;24.80;10.70;;;;;;;11.15;100.00;100785.38;5074988;56;1146036;-69
2023/01/02 04:40:29;;;;;;;28.37;12.57;;;;;;;11.15;100.00;100782.73;5036084;57;1152483;-70
2023/01/02 04:45:35;;;;;;;19.42;9.95;;;;;;;11.15;100.00;100764.20;5032400;57;1145172;-66
2023/01/02 04:50:41;;;;;;;20.30;10.10;;;;;;;11.14;100.00;100761.19;5035753;57;1143141;-66
2023/01/02 04:55:47;;;;;;;31.23;11.00;;;;;;;11.16;100.00;100757.91;5051565;57;1145384;-69
2023/01/02 05:00:53;;;;;;;24.53;10.87;;;;;;;11.13;100.00;100745.78;5034568;57;1145925;-71
2023/01/02 05:06:02;;;;;;;19.67;10.63;;;;;;;11.10;100.00;100752.63;5094335;56;1145374;-69
2023/01/02 05:11:14;;;;;;;19.43;9.80;;;;;;;11.08;100.00;100743.11;5118400;56;1145175;-69
2023/01/02 05:16:20;;;;;;;23.60;9.00;;;;;;;11.12;100.00;100732.18;5098715;56;1143001;-66
2023/01/02 05:26:52;;;;;;;23.63;10.90;;;;;;;11.23;100.00;100737.48;5084625;56;1145089;-68
2023/01/02 05:31:59;;;;;;;22.07;9.83;;;;;;;11.22;100.00;100750.36;5063496;56;1145113;-69
2023/01/02 05:37:05;;;;;;;19.43;9.57;;;;;;;11.20;100.00;100750.11;5059131;56;1143033;-70
2023/01/02 05:42:11;;;;;;;18.20;8.93;;;;;;;11.22;100.00;100742.89;5073423;56;1142896;-66
2023/01/02 05:47:17;;;;;;;20.07;9.07;;;;;;;11.27;100.00;100738.09;5088521;56;1143056;-68
2023/01/02 05:52:23;;;;;;;30.33;15.03;;;;;;;11.30;100.00;100698.16;5096523;56;1142936;-69
2023/01/02 05:57:29;;;;;;;19.90;10.50;;;;;;;11.35;100.00;100701.27;5098799;56;1250441;-68
2023/01/02 06:02:35;;;;;;;22.97;9.80;;;;;;;11.34;100.00;100695.61;5128215;56;1145076;-70
2023/01/02 06:07:41;;;;;;;52.57;32.50;;;;;;;11.33;100.00;100701.86;5120409;55;1239366;-71
2023/01/02 06:12:46;;;;;;;22.15;12.45;;;;;;;11.32;100.00;100708.59;5120321;56;1234299;-66
2023/01/02 06:17:52;;;;;;;17.77;9.47;;;;;;;11.31;100.00;100712.20;5110669;56;1145063;-70
2023/01/02 06:22:58;;;;;;;19.55;8.85;;;;;;;11.28;100.00;100706.69;5032491;57;1182439;-68
2023/01/02 06:28:05;;;;;;;13.10;7.50;;;;;;;11.23;100.00;100711.48;5037027;56;1143283;-69
2023/01/02 06:33:11;;;;;;;23.23;14.90;;;;;;;11.22;100.00;100701.37;5079632;56;1142995;-70
2023/01/02 06:38:17;;;;;;;16.90;8.10;;;;;;;11.21;100.00;100701.49;5101136;56;1145190;-67
2023/01/02 06:43:24;;;;;;;15.97;8.60;;;;;;;11.17;100.00;100715.92;5101195;56;1143168;-67
2023/01/02 06:48:30;;;;;;;12.73;8.43;;;;;;;11.18;100.00;100709.67;5121499;56;1142946;-68
2023/01/02 06:53:39;;;;;;;17.77;8.93;;;;;;;11.16;100.00;100713.75;5101374;56;1143218;-72
2023/01/02 06:58:46;;;;;;;18.77;8.57;;;;;;;11.11;100.00;100706.66;5101426;56;1142951;-68
2023/01/02 07:03:54;;;;;;;18.77;7.97;;;;;;;11.08;100.00;100703.41;5113519;56;1143042;-68
2023/01/02 07:08:59;;;;;;;16.25;8.00;;;;;;;11.07;100.00;100705.20;5141958;56;1142953;-68
2023/01/02 07:14:05;;;;;;;13.87;7.20;;;;;;;11.05;100.00;100699.18;5072194;56;1143108;-67
2023/01/02 07:19:11;;;;;;;17.27;8.43;;;;;;;11.06;100.00;100707.97;5036842;57;1143027;-71
2023/01/02 07:24:17;;;;;;;11.53;7.37;;;;;;;11.09;100.00;100707.27;5057256;56;1142954;-68
2023/01/02 07:29:24;;;;;;;13.40;7.13;;;;;;;11.09;100.00;100704.61;5037190;56;1142871;-68
2023/01/02 07:34:31;;;;;;;16.00;7.67;;;;;;;11.13;100.00;100711.36;5037097;56;1143073;-68
2023/01/02 07:39:37;;;;;;;15.40;7.53;;;;;;;11.18;100.00;100704.38;5056924;56;1143089;-69
2023/01/02 07:44:42;;;;;;;10.63;6.47;;;;;;;11.22;100.00;100693.92;5037614;56;1143104;-72
2023/01/02 07:49:48;;;;;;;13.32;6.83;;;;;;;11.29;100.00;100692.49;5037337;56;1143009;-67
2023/01/02 07:54:55;;;;;;;15.23;6.50;;;;;;;11.35;100.00;100696.45;5060243;56;1143033;-66
2023/01/02 08:00:01;;;;;;;16.17;6.87;;;;;;;11.37;100.00;100697.17;5044978;56;1143023;-72
2023/01/02 08:05:08;;;;;;;14.23;7.03;;;;;;;11.46;100.00;100694.64;5114987;56;1142923;-71
2023/01/02 08:10:15;;;;;;;14.20;6.03;;;;;;;11.55;100.00;100692.61;5149143;56;1143015;-74
2023/01/02 08:15:23;;;;;;;13.13;6.00;;;;;;;11.64;100.00;100687.90;5129169;56;1143032;-70
2023/01/02 08:20:29;;;;;;;12.43;6.30;;;;;;;11.69;100.00;100698.63;5122379;56;1143202;-74
2023/01/02 08:25:34;;;;;;;12.50;6.50;;;;;;;11.66;100.00;100712.10;5074385;56;1142901;-72
2023/01/02 08:30:43;;;;;;;9.73;5.40;;;;;;;11.61;100.00;100715.11;5045807;56;1142868;-68
2023/01/02 08:35:50;;;;;;;12.20;8.37;;;;;;;11.62;100.00;100714.98;5056571;56;1140956;-70
2023/01/02 08:40:58;;;;;;;14.80;6.10;;;;;;;11.63;100.00;100707.88;5076375;56;1143067;-70
2023/01/02 08:46:07;;;;;;;12.63;6.60;;;;;;;11.66;100.00;100712.10;5062193;56;1142910;-72
2023/01/02 08:51:13;;;;;;;13.70;6.47;;;;;;;11.68;100.00;100701.75;5072292;56;1142972;-72
2023/01/02 08:56:25;;;;;;;13.60;6.53;;;;;;;11.74;100.00;100707.05;5088102;56;1142900;-68
2023/01/02 09:01:33;;;;;;;14.07;6.23;;;;;;;11.79;100.00;100701.77;5070300;56;1142914;-71
2023/01/02 09:06:39;;;;;;;10.37;6.17;;;;;;;11.80;100.00;100701.28;5040740;56;1142961;-70
2023/01/02 09:11:49;;;;;;;17.70;6.77;;;;;;;11.84;100.00;100704.05;5070985;56;1142975;-69
2023/01/02 09:16:56;;;;;;;9.28;5.85;;;;;;;11.90;100.00;100691.66;5138250;56;1142996;-69
2023/01/02 09:22:03;;;;;;;18.80;8.40;;;;;;;11.91;100.00;100708.77;5121897;56;1141073;-73
2023/01/02 09:27:09;;;;;;;12.50;6.57;;;;;;;11.93;100.00;100711.26;5109442;56;1142823;-73
2023/01/02 09:32:14;;;;;;;17.07;7.12;;;;;;;11.96;100.00;100703.91;5067200;56;1142850;-69
2023/01/02 09:37:20;;;;;;;16.03;5.90;;;;;;;12.02;100.00;100711.86;5058148;56;1142910;-66
2023/01/02 09:42:26;;;;;;;13.57;5.03;;;;;;;12.08;100.00;100714.48;5037106;57;1143016;-70
2023/01/02 09:47:32;;;;;;;12.13;5.33;;;;;;;12.14;100.00;100708.70;5056853;57;1143031;-71
2023/01/02 09:52:45;;;;;;;10.30;5.40;;;;;;;12.19;100.00;100698.58;5037483;57;1143027;-66
2023/01/02 09:57:56;;;;;;;;;;;;;;;12.29;100.00;100703.47;5041025;57;1143055;-73
2023/01/02 10:03:12;;;;;;;13.83;6.10;;;;;;;12.37;100.00;100695.75;5060037;57;978294;-71
2023/01/02 10:08:51;;;;;;;10.13;5.70;;;;;;;12.40;100.00;100680.87;5065145;57;1140747;-70
2023/01/02 10:14:06;;;;;;;12.68;5.30;;;;;;;12.40;100.00;100667.62;5045213;57;1142957;-71
2023/01/02 10:19:28;;;;;;;10.47;5.33;;;;;;;12.42;100.00;100677.63;5044454;57;1142983;-71
2023/01/02 10:24:41;;;;;;;11.97;4.70;;;;;;;12.50;100.00;100669.88;5063752;56;1142994;-71
2023/01/02 10:30:21;;;;;;;11.33;5.70;;;;;;;12.56;100.00;100664.05;5025531;57;1143022;-70
2023/01/02 10:35:56;;;;;;;10.63;5.13;;;;;;;12.62;100.00;100668.86;5044187;56;1142931;-69
2023/01/02 10:41:03;;;;;;;14.90;6.53;;;;;;;12.71;100.00;100666.39;5045128;57;1143113;-68
2023/01/02 10:46:09;;;;;;;9.90;5.60;;;;;;;12.80;99.65;100665.14;5064608;57;1142932;-71
2023/01/02 10:51:16;;;;;;;10.73;5.83;;;;;;;12.92;98.92;100653.97;5039973;56;1138795;-73
2023/01/02 10:56:22;;;;;;;10.40;4.20;;;;;;;13.01;97.93;100655.34;5045113;57;1140899;-66
2023/01/02 11:01:28;;;;;;;8.90;4.40;;;;;;;13.07;97.28;100650.00;5110855;56;1141176;-68
2023/01/02 11:06:34;;;;;;;11.93;5.40;;;;;;;13.14;95.40;100645.83;5082520;56;1138789;-72
2023/01/02 11:11:50;;;;;;;9.97;5.50;;;;;;;13.24;95.48;100649.91;5122061;56;1140862;-71
2023/01/02 11:17:12;;;;;;;7.53;4.35;;;;;;;13.30;95.50;100649.36;5127611;56;1138939;-70
2023/01/02 11:22:21;;;;;;;12.33;5.40;;;;;;;13.30;94.89;100627.62;5147662;56;1138786;-70
2023/01/02 11:27:34;;;;;;;11.07;6.03;;;;;;;13.30;96.09;100638.73;5077870;56;1140970;-68
2023/01/02 11:32:42;;;;;;;6.23;4.87;;;;;;;13.28;94.90;100624.28;5054205;56;1140963;-73
2023/01/02 11:37:55;;;;;;;8.63;4.75;;;;;;;13.31;94.00;100622.66;5062823;56;1138869;-72
2023/01/02 11:48:28;;;;;;;7.50;4.77;;;;;;;13.35;94.30;100620.59;5043115;56;1138725;-70
2023/01/02 11:53:40;;;;;;;14.03;4.50;;;;;;;13.31;94.33;100610.71;5048960;56;1138884;-71
2023/01/02 11:59:18;;;;;;;9.83;4.62;;;;;;;13.33;93.50;100610.58;5051707;56;1140912;-70
2023/01/02 12:04:25;;;;;;;6.13;4.27;;;;;;;13.38;93.93;100621.66;5140076;56;1138888;-68
2023/01/02 12:10:06;;;;;;;12.23;5.00;;;;;;;13.39;92.82;100624.66;5126444;56;1139118;-72
2023/01/02 12:15:46;;;;;;;11.73;4.90;;;;;;;13.43;93.92;100610.14;5125813;56;1140806;-70
2023/01/02 12:21:23;;;;;;;24.30;9.33;;;;;;;13.40;93.15;100612.22;5109471;56;1140874;-66
2023/01/02 12:27:13;;;;;;;21.47;9.50;;;;;;;13.38;94.39;100601.73;5046859;56;1140839;-70
2023/01/02 12:32:44;;;;;;;8.33;5.70;;;;;;;13.33;94.49;100607.44;5051700;56;1140859;-72
2023/01/02 12:37:59;;;;;;;11.50;6.40;;;;;;;13.31;95.09;100608.05;5042199;56;1138970;-71
2023/01/02 12:43:28;;;;;;;10.90;6.72;;;;;;;13.32;94.91;100591.14;5062092;56;1140948;-67
2023/01/02 12:49:11;;;;;;;12.03;5.67;;;;;;;13.33;95.52;100595.97;5042571;56;1141011;-69
2023/01/02 12:54:53;;;;;;;14.20;7.28;;;;;;;13.35;94.50;100597.52;5053229;56;1141095;-71
2023/01/02 13:00:17;;;;;;;21.17;10.17;;;;;;;13.35;94.97;100590.03;5042195;56;1140937;-68
2023/01/02 13:05:48;;;;;;;14.13;7.33;;;;;;;13.35;95.33;100584.72;5115802;56;1142907;-69
2023/01/02 13:10:56;;;;;;;10.38;6.05;;;;;;;13.33;95.15;100564.93;4787069;59;1141195;-68
2023/01/02 13:16:10;;;;;;;11.00;5.90;;;;;;;13.34;94.39;100574.59;4762470;60;1140887;-72
2023/01/02 13:21:25;;;;;;;15.40;5.70;;;;;;;13.35;95.02;100578.92;4727061;60;1140925;-71
2023/01/02 13:26:33;;;;;;;9.43;4.97;;;;;;;13.34;94.39;100595.84;4607672;60;1140956;-73
2023/01/02 13:31:42;;;;;;;16.80;7.17;;;;;;;13.36;94.56;100581.94;4626923;61;1139098;-72
2023/01/02 13:36:50;;;;;;;14.45;6.58;;;;;;;13.38;94.69;100573.83;4591143;61;1141266;-72
2023/01/02 13:47:37;;;;;;;9.87;5.00;;;;;;;13.40;94.26;100584.33;4807789;60;1140966;-71
2023/01/02 13:52:57;;;;;;;15.80;5.10;;;;;;;13.38;93.86;100589.77;4865088;59;1138729;-68
2023/01/02 13:58:20;;;;;;;20.90;6.95;;;;;;;13.38;94.13;100588.44;5045393;57;1140801;-70
2023/01/02 14:03:31;;;;;;;24.73;11.33;;;;;;;13.38;93.73;100591.94;5104981;56;1140780;-67
2023/01/02 14:08:44;;;;;;;29.57;16.43;;;;;;;13.39;93.35;100588.80;5052021;56;1142990;-67
2023/01/02 14:13:53;;;;;;;15.63;6.97;;;;;;;13.38;93.33;100581.80;5040169;57;1143010;-72
2023/01/02 14:19:18;;;;;;;30.40;11.78;;;;;;;13.39;93.27;100579.50;5045444;57;1141179;-69
2023/01/02 14:24:43;;;;;;;43.93;13.30;;;;;;;13.42;93.85;100575.25;5064625;57;1143020;-70
2023/01/02 14:30:00;;;;;;;16.15;8.18;;;;;;;13.39;93.71;100562.23;5032979;57;1142905;-72
2023/01/02 14:35:14;;;;;;;10.87;6.27;;;;;;;13.36;93.85;100585.92;4971315;57;1140943;-70
2023/01/02 14:40:31;;;;;;;15.33;6.90;;;;;;;13.33;93.48;100599.95;4982642;57;1140906;-68
2023/01/02 14:45:52;;;;;;;14.03;7.33;;;;;;;13.29;93.88;100613.98;4962993;57;1140915;-67
2023/01/02 14:51:01;;;;;;;13.30;6.00;;;;;;;13.22;93.89;100622.63;4984233;56;1141010;-72
2023/01/02 14:56:14;;;;;;;11.50;5.53;;;;;;;13.18;94.43;100619.88;5044262;57;1141070;-69
2023/01/02 15:01:24;;;;;;;16.73;8.25;;;;;;;13.16;94.77;100633.78;5064573;57;1140853;-73
2023/01/02 15:06:46;;;;;;;18.60;8.17;;;;;;;13.12;95.05;100644.30;5047111;56;1141006;-69
2023/01/02 15:17:24;;;;;;;14.23;7.10;;;;;;;13.14;95.10;100651.66;5093920;56;1140781;-68
2023/01/02 15:22:31;;;;;;;14.77;6.13;;;;;;;13.15;94.84;100648.02;5050935;56;1141037;-70
2023/01/02 15:27:38;;;;;;;10.10;6.83;;;;;;;13.17;94.18;100636.30;5039706;57;1141066;-67
2023/01/02 15:32:49;;;;;;;17.52;11.57;;;;;;;13.15;94.45;100632.94;5013361;56;1140968;-72
2023/01/02 15:37:55;;;;;;;12.50;6.90;;;;;;;13.13;95.01;100638.02;4997716;57;1143097;-70
2023/01/02 15:48:39;;;;;;;86.10;31.53;;;;;;;13.03;95.51;100652.55;4968154;57;1143109;-71
2023/01/02 15:53:45;;;;;;;13.90;7.07;;;;;;;12.99;95.84;100659.93;4976785;57;1143015;-70
2023/01/02 15:58:52;;;;;;;31.06;10.24;;;;;;;12.96;96.16;100654.91;4976302;57;1150463;-70
2023/01/02 16:04:04;;;;;;;40.80;14.20;;;;;;;12.93;96.17;100649.02;5003839;56;1143056;-70
2023/01/02 16:09:21;;;;;;;25.53;10.47;;;;;;;12.93;96.20;100650.34;4984891;57;1143033;-69
2023/01/02 16:14:42;;;;;;;12.67;7.73;;;;;;;12.96;96.54;100656.72;5001125;57;1142976;-73
2023/01/02 16:19:58;;;;;;;78.20;33.05;;;;;;;12.94;96.17;100651.54;4963200;56;1141196;-69
2023/01/02 16:25:17;;;;;;;21.17;10.40;;;;;;;12.96;95.95;100638.98;4982318;58;1142877;-71
2023/01/02 16:30:39;;;;;;;17.27;9.57;;;;;;;12.96;95.89;100634.16;5040079;57;1142850;-70
2023/01/02 16:36:00;;;;;;;18.67;9.48;;;;;;;12.94;95.99;100639.59;5044155;57;1140846;-69
2023/01/02 16:41:11;;;;;;;19.82;7.22;;;;;;;12.94;95.52;100642.25;5044047;57;1140784;-68
2023/01/02 16:46:16;;;;;;;27.17;8.83;;;;;;;12.96;95.59;100652.25;4969592;58;1141101;-69
2023/01/02 16:51:22;;;;;;;18.83;8.13;;;;;;;12.96;95.07;100655.39;4884029;59;1141196;-69
2023/01/02 16:56:29;;;;;;;16.00;7.43;;;;;;;12.96;95.08;100645.62;4883945;59;1140850;-71
2023/01/02 17:01:35;;;;;;;16.60;7.93;;;;;;;12.95;94.89;100650.57;4927741;58;1140918;-69
2023/01/02 17:06:41;;;;;;;23.07;11.73;;;;;;;12.96;94.92;100655.39;4807202;60;1140849;-67
2023/01/02 17:12:00;;;;;;;22.02;8.20;;;;;;;12.95;94.98;100654.55;4835595;59;1143133;-69
2023/01/02 17:17:06;;;;;;;18.32;8.80;;;;;;;12.92;95.64;100664.58;5062704;57;1140988;-69
2023/01/02 17:22:12;;;;;;;16.30;7.53;;;;;;;12.88;95.29;100665.32;5043033;57;1140944;-73
2023/01/02 17:27:17;;;;;;;47.40;25.80;;;;;;;12.86;95.46;100663.28;5042982;57;1141081;-70
2023/01/02 17:32:23;;;;;;;16.17;8.03;;;;;;;12.85;95.87;100667.39;5062601;56;1142972;-70
2023/01/02 17:37:31;;;;;;;16.73;8.77;;;;;;;12.79;95.72;100663.94;5043510;56;1140746;-69
2023/01/02 17:42:37;;;;;;;17.07;8.23;;;;;;;12.78;96.07;100674.20;5042269;56;1140804;-69
2023/01/02 17:47:47;;;;;;;21.93;10.53;;;;;;;12.78;95.60;100673.72;5061665;57;1141042;-70
2023/01/02 17:52:54;;;;;;;30.20;18.27;;;;;;;12.77;95.26;100666.72;5046328;57;1147086;-71
2023/01/02 17:58:00;;;;;;;17.12;7.35;;;;;;;12.77;95.17;100661.91;5027007;57;1143145;-68
2023/01/02 18:03:05;;;;;;;17.62;7.35;;;;;;;12.80;95.27;100664.30;5062136;56;1140873;-72
2023/01/02 18:08:11;;;;;;;12.95;5.92;;;;;;;12.81;95.23;100662.84;5043704;56;1140870;-69
2023/01/02 18:13:17;;;;;;;17.05;6.47;;;;;;;12.81;96.01;100656.70;5043537;56;1140818;-70
2023/01/02 18:18:24;;;;;;;17.30;9.40;;;;;;;12.79;96.06;100667.92;5063484;56;1140821;-68
2023/01/02 18:23:30;;;;;;;22.40;8.97;;;;;;;12.76;96.05;100670.83;5043788;56;1140862;-71
2023/01/02 18:28:40;;;;;;;20.80;8.20;;;;;;;12.73;96.13;100669.27;5043525;56;1141206;-69
2023/01/02 18:33:47;;;;;;;13.83;6.40;;;;;;;12.72;95.99;100672.05;5043074;56;1141066;-70
2023/01/02 18:39:17;;;;;;;20.27;7.70;;;;;;;12.69;95.96;100679.78;5062976;56;1140805;-70
2023/01/02 18:44:28;;;;;;;17.47;10.10;;;;;;;12.67;96.12;100675.95;5037591;56;1141084;-70
2023/01/02 18:49:40;;;;;;;22.30;8.47;;;;;;;12.63;96.22;100681.64;5042753;56;1142885;-68
2023/01/02 18:54:47;;;;;;;;;;;;;;;12.59;96.28;100680.20;5046897;56;1140940;-70
2023/01/02 18:59:53;;;;;;;18.27;8.93;;;;;;;12.56;96.57;100689.73;5079579;56;976130;-68
2023/01/02 19:05:00;;;;;;;22.80;11.53;;;;;;;12.53;96.76;100697.95;5112647;56;1138877;-70
2023/01/02 19:10:33;;;;;;;19.93;7.40;;;;;;;12.49;96.99;100704.02;5126990;56;1143160;-74
2023/01/02 19:15:55;;;;;;;17.07;6.23;;;;;;;12.46;96.82;100688.83;5145327;56;1140987;-72
2023/01/02 19:21:27;;;;;;;12.85;5.78;;;;;;;12.48;96.82;100694.85;5121691;56;1140959;-70
2023/01/02 19:26:46;;;;;;;13.93;5.77;;;;;;;12.49;96.95;100717.28;5120970;56;1140933;-73
2023/01/02 19:32:04;;;;;;;18.07;5.75;;;;;;;12.51;96.81;100727.77;5114673;56;1141060;-72
2023/01/02 19:37:23;;;;;;;13.53;4.65;;;;;;;12.53;97.09;100725.31;5056897;57;1140924;-68
2023/01/02 19:42:30;;;;;;;10.20;4.90;;;;;;;12.55;96.81;100726.52;5036752;57;1140964;-72
2023/01/02 19:47:39;;;;;;;19.43;7.77;;;;;;;12.57;97.07;100732.55;5037202;57;1141019;-71
2023/01/02 19:52:45;;;;;;;8.83;5.15;;;;;;;12.60;96.69;100738.94;5036990;57;1141062;-69
2023/01/02 19:57:51;;;;;;;16.07;5.53;;;;;;;12.59;97.06;100747.86;5054870;57;1138658;-70
2023/01/02 20:02:57;;;;;;;12.83;5.23;;;;;;;12.59;97.23;100751.84;5018106;57;1144854;-71
2023/01/02 20:08:04;;;;;;;18.45;7.50;;;;;;;12.56;97.28;100757.39;5044285;57;1140736;-69
2023/01/02 20:13:09;;;;;;;20.43;5.60;;;;;;;12.57;97.45;100761.25;5064178;57;1141026;-71
2023/01/02 20:18:17;;;;;;;15.25;6.58;;;;;;;12.56;97.49;100758.23;5040877;57;1141208;-68
2023/01/02 20:23:24;;;;;;;9.90;4.93;;;;;;;12.52;97.63;100748.87;5001538;56;1141051;-71
2023/01/02 20:28:31;;;;;;;13.60;5.17;;;;;;;12.50;98.02;100760.57;5044076;57;1138645;-71
2023/01/02 20:33:37;;;;;;;14.47;5.10;;;;;;;12.43;98.31;100757.56;4999121;56;1141053;-73
2023/01/02 20:38:44;;;;;;;12.47;4.90;;;;;;;12.39;98.44;100756.59;5044812;56;1140821;-69
2023/01/02 20:43:49;;;;;;;15.33;5.10;;;;;;;12.33;98.85;100772.06;5001938;56;1140877;-70
2023/01/02 20:48:55;;;;;;;25.30;5.20;;;;;;;12.26;99.28;100781.47;4987974;57;1188350;-72
2023/01/02 20:54:02;;;;;;;10.58;4.62;;;;;;;12.21;99.74;100794.75;5032389;56;1140956;-70
2023/01/02 20:59:08;;;;;;;14.97;5.20;;;;;;;12.20;99.99;100797.89;5033135;57;1140886;-70
2023/01/02 21:04:14;;;;;;;10.28;4.85;;;;;;;12.19;100.00;100805.48;5062712;57;1140820;-71
2023/01/02 21:09:20;;;;;;;9.40;3.70;;;;;;;12.17;100.00;100812.71;5024014;57;1142979;-71
2023/01/02 21:14:25;;;;;;;4.10;2.80;;;;;;;12.18;100.00;100813.55;4962931;58;1140863;-72
2023/01/02 21:19:31;;;;;;;4.37;3.03;;;;;;;12.23;99.84;100822.81;5007961;57;1140996;-71
2023/01/02 21:24:37;;;;;;;5.20;2.10;;;;;;;12.26;98.93;100828.36;5039606;57;1139009;-70
2023/01/02 21:29:44;;;;;;;3.15;1.62;;;;;;;12.22;98.12;100825.09;5056745;57;1138851;-69
2023/01/02 21:34:50;;;;;;;1.32;1.22;;;;;;;12.17;97.94;100831.75;5014689;57;1138893;-73
2023/01/02 21:39:55;;;;;;;1.20;0.93;;;;;;;12.10;97.95;100834.52;5054743;56;1138794;-70
2023/01/02 21:45:01;;;;;;;1.00;0.87;;;;;;;12.02;98.43;100846.22;5043066;56;1139154;-71
2023/01/02 21:50:09;;;;;;;0.90;0.90;;;;;;;11.92;98.90;100851.38;5061747;55;1138755;-69
2023/01/02 21:55:16;;;;;;;6.85;1.00;;;;;;;11.87;99.11;100866.81;5065013;56;1138900;-71
2023/01/02 22:00:25;;;;;;;2.97;0.97;;;;;;;11.82;99.43;100872.45;5038461;56;1138868;-72
2023/01/02 22:05:31;;;;;;;1.40;1.10;;;;;;;11.80;99.71;100879.67;5042232;57;1138943;-72
2023/01/02 22:10:37;;;;;;;0.97;0.90;;;;;;;11.81;100.00;100884.50;5115994;56;1138776;-69
2023/01/02 22:15:44;;;;;;;3.13;1.13;;;;;;;11.77;100.00;100902.43;5137153;57;1140878;-68
2023/01/02 22:20:50;;;;;;;1.13;0.70;;;;;;;11.71;100.00;100908.66;5122677;56;1140982;-68
2023/01/02 22:25:55;;;;;;;1.33;0.73;;;;;;;11.67;100.00;100924.42;5113003;56;1140889;-69
2023/01/02 22:31:01;;;;;;;0.45;0.45;;;;;;;11.63;100.00;100927.77;5128510;57;1140850;-72
2023/01/02 22:36:08;;;;;;;1.70;0.90;;;;;;;11.58;100.00;100925.98;5072901;57;1140894;-71
2023/01/02 22:41:15;;;;;;;0.73;0.63;;;;;;;11.53;100.00;100921.02;5036473;57;1140975;-71
2023/01/02 22:46:25;;;;;;;0.60;0.47;;;;;;;11.49;100.00;100930.62;5065411;57;1140699;-70
2023/01/02 22:51:32;;;;;;;0.60;0.60;;;;;;;11.47;100.00;100936.50;5051984;57;1140895;-70
2023/01/02 22:56:38;;;;;;;1.23;0.70;;;;;;;11.44;100.00;100942.06;5022137;57;1141056;-71
2023/01/02 23:01:48;;;;;;;1.27;1.03;;;;;;;11.40;100.00;100949.86;5031270;57;1141043;-68
2023/01/02 23:06:54;;;;;;;1.70;0.80;;;;;;;11.40;100.00;100967.07;5055434;57;1141113;-70
2023/01/02 23:12:00;;;;;;;1.37;0.90;;;;;;;11.36;100.00;100977.52;5064763;58;1141158;-71
2023/01/02 23:22:29;;;;;;;0.80;0.80;;;;;;;11.33;100.00;100997.59;4968815;59;1140861;-72
2023/01/02 23:27:35;;;;;;;1.50;1.40;;;;;;;11.28;100.00;100999.28;4995932;57;1141285;-70
2023/01/02 23:32:41;;;;;;;1.35;1.00;;;;;;;11.24;100.00;101009.72;4995162;58;1141029;-71
2023/01/02 23:37:47;;;;;;;1.23;0.70;;;;;;;11.10;100.00;101026.59;5090070;57;1141050;-69
2023/01/02 23:42:53;;;;;;;2.30;1.03;;;;;;;10.94;100.00;101033.94;5140987;57;1141209;-67